Airfield :
LOGIN :

Register | Disclaimer

   EN    FR    IT 

 










Legend :    VFR   Marginal VFR   IFR   Intensive IFR   Very Intensive IFR
Visi :
Ceiling :
>= 8 km
>= 3000ft
5 to 8 km
1000 to 3000 ft
1500m to 5 km
500 to 1000 ft
800 to 1500m
200 to 500 ft
< 800m
< 200 ft
Symbols :   Thunderstorms  Fog  Heavy snow  Heavy precipitations  Wind > 20 kt
SIGMETs :     Misc.  Thunderstorms  Icing  Turbulence  Mountain Waves  Volcanic Ashes






- Airport Elevation : 19 ft
- IATA code : LCY


EGLC - London City

CURRENT METAR :
  • 271450Z AUTO 30021G33KT 9999 SCT042 08/M02 Q1004

EXPIRED METARs :
  • 271420Z AUTO 30017G30KT 280V340 9999 SCT040 07/M00 Q1003
  • 271350Z AUTO 31016G26KT 280V350 9999 SCT032 BKN045 07/M00 Q1002
  • 271320Z AUTO 30015KT 9999 BKN025 BKN031 07/01 Q1001
  • 271250Z AUTO 31011KT 280V350 9999 SCT015 SCT019 BKN024 06/02 Q1001
  • 271220Z AUTO 31010KT 280V010 9999 BKN012 OVC016 04/02 Q1000

TAF TAF EGLC
Valid from the 27 at 15:00 until the 27 at 22:00 UTC


271406Z 2715/2722 31017G27KT 9999 SCT030
BECMG 2718/2721 27008KT
ATIS : +44 20 7646 0224



MET'MAP, your aeronautical weather chart ! - Copyright ORBIFLY December 2007 - Disclaimer

ORBIFLY MET'MAP TEAM :

Programming & Development : Alexandra Zaïnal
Concept & original design : Baudouin d'Aumeries
Assistance for programming : Marc-Olivier Méhu
Technical & hardware support : Manuel Goepfert

Contact : metmap@orbifly.com




SOURCES & CREDITS :

   NOAA